Disclaimer   
PNR Super Search
 ♦ 
×
HashTag:
PNR Number:
Train Type:
Train:
From Station:
To Station:
Train Class:
2SSLCCEx3AFC2A1A3E
WL Quota:
DOJ From:
DOJ To:
Blogger:
Traveller:
Predictor:
Prediction:
WLRACConf
Stamper:
Final:
WLRACConfVoidQ-ConfUnStamped
Status:
Reaction:

Search
  Go  
 
Sat Jul 4, 2015 01:47:59 ISTHomeTrainsΣChainsAtlasPNRForumGalleryNewsFAQTripsMembersLoginFeedback
Sat Jul 4, 2015 01:47:59 IST
Post PNRPNR StatusModify Search

Ticket PNR Status Inquiry - PNR: 810-xxxxxxx (E-Ticket)

OLD STATUS

Status Last Updated on: May 21 2012 (7:50PM) IST

Date of Journey: Tue May 22, 2012   Class: Sleeper - SL   (Total Seats available for this Class/Quota: Avbl >183)
Passenger 1: SX1,33/Coach Position:11 (Booking Status: W/L 43,GNWL)
Passenger 2: SX1,36/Coach Position:11 (Booking Status: W/L 44,GNWL)
Passenger 3: SX1,34/Coach Position:11 (Booking Status: W/L 45,GNWL)
Passenger 4: SX1,35/Coach Position:11 (Booking Status: W/L 46,GNWL)
Passenger 5: SX1,37/Coach Position:11 (Booking Status: W/L 47,GNWL)
Passenger 6: SX1,38/Coach Position:11 (Booking Status: W/L 48,GNWL)
Chart PREPARED

Mumbai Bandra Terminus- Dehradun Express/19019

Travel Time: 34h 46m    85 halts    Distance: 1408 km    Avg Speed: 40 km/hr
Peak Observed Speed: n/a
Type: Mail/Express
Zone: WR/Western
Departs @ 04:04 (Avg 8m late)
Platform# 1
SMTWTFS
NVS/Navsari 
Arrives @ 14:50 +1 night (Avg 25m late)
Platform# 1
SMTWTFS
HW/Haridwar Junction 

85 halts. 215 intermediate Stations between Navsari and Haridwar Junction

Show ALL intermediate Stations  Show Old Time-Table

#TrkCodeStation NameX/OArrivesAvgDepartsAvgHaltPFDay#KmSpeedElevZoneAddress
1/==/BDTSBandra Terminus  -00:05+011-222.6379mWRMumbai 400050, Maharashtra
2/==/BVIBorivali  00:35+600:40+55m61-203.85019mWRMumbai - 400092, Maharashtra
3/==/BSRVasai RoadO  01:01+201:03+32m31-186.4747mWRVasai 401202, Maharashtra
4/==/PLGPalgharX  01:35+1601:37+192m11-146.85219mWRPalghar, Maharashtra
5/==/DRDDahanu RoadX  02:15+1002:17+102m11-113.99112mWRDahanu, Maharashtra
6/==/VAPIVapiX  02:49+1302:51+142m11-65.35427mWRVapi, Gujarat
7/==/BLValsadX  03:20+703:25+105m11-39.15715mWRValsad, Gujarat
8/==/BIMBilimora JunctionX  03:44+703:46+72m11-21.27911mWRBilimora, Gujarat
9/==/NVSNavsari»  04:02+804:04+82m110.04914mWRNavsari, Gujarat
10/==/STSuratX  04:40+204:45+35m1129.67217mWRSurat 395001, Gujarat
11/==/KSBKosamba Junction05:11+505:13+62m--161.013930mWRKosamba, Gujarat
12/==/AKVAnkleshwar JunctionX  05:21+1405:23+142m1179.64320mWRAnkleshwar, Gujarat
13/==/BHBharuch JunctionX  05:36+1405:38+142m3188.98720mWRBharuch, Gujarat
14/==/MYGMiyagam Karjan  06:06+1506:08+142m21129.65629mWRKarjan, Gujarat
15/==/BRCVadodara JunctionXO  06:40+1406:50+1410m21159.46736mWRVadodara 390005, Gujarat
16/==/SMLASamlaya Junction  07:14+2107:16+212m21186.06767mWRVadodara, Gujarat
17/==/CPNChampaner Road Junction  07:26+2007:28+202m21197.25489mWRPanchmahal, Gujarat
18/==/DRLDerolX  07:42+1907:44+182m21209.77681mWRKalol, Gujarat
19/==/KRSAKharsaliyaX  07:54+1707:56+172m21222.427107mWRPanchmahal, Gujarat
20/==/GDAGodhra JunctionO  08:20+908:25+105m21233.358122mWRGodhra, Gujarat
21/==/SATSant Road  08:46+1208:47+131m21253.765169mWROrwara, Gujarat
22/==/PPDPiplod Junction  08:58+1408:59+161m21265.568209mWRPiplod, Gujarat
23/==/LMKLimkhedaXO  09:06+1909:08+232m21273.525205mWRLimkheda, Gujarat
24/==/MAMMangal MahudiX  09:29+1209:30+131m21282.197248mWRDabhada, Gujarat
25/==/DHDDahodXO  09:45+1909:50+195m21306.445313mWRDahod, Gujarat
26/==/BIOBordi  10:04+1610:05+161m--1317.068289mWRNational Highway 59, Gujarat
27/==/ANASAnasX  10:12+1610:13+161m--1325.073288mWRMadhya Pradesh 389154 ?, Madhya Pradesh
28/==/MGNMeghnagar  10:25+1810:27+192m--1339.560317mWRJhabua, Madhya Pradesh
29/==/THDRThandla Road  10:35+2010:36+201m--1347.564323mWRJhabua, Madhya Pradesh
30/==/PCNPanch Pipila  10:49+2210:50+221m--1361.452369mWRSH 39A, Madhya Pradesh
31/==/AGRAmargarh  11:01+2111:02+211m--1370.950410mWRSH 39A, Madhya Pradesh
32/==/BMIBamnia  11:07+2211:09+222m--1375.145392mWRBamnia, Madhya Pradesh
33/==/BOGBhairongarh  11:17+2211:18+221m--1381.165374mWRBhairongarh Railway Station, Madhya Pradesh
34/==/RTIRaotiX  11:29+2311:30+241m--1392.953409mWRState Highway 39A, Madhya Pradesh
35/==/BILDBildiX  11:38+2511:39+251m--1400.160422mWRMadhya Pradesh, Madhya Pradesh
36/==/MRNMorwaniX  11:48+2611:49+261m--1409.121459mWRDantoda, Madhya Pradesh
37/==/RTMRatlam JunctionX  12:20+1812:40+1820m51419.849495mWRRatlam 457001, Madhya Pradesh
38/==/BODBangrod  12:52+2412:53+241m--1429.755484mWRRatlam, Madhya Pradesh
39/==/RNHRunkhera  13:01+2613:02+261m--1437.057486mWRDistrict Ujjain, Madhya Pradesh
40/==/KUHKhachrodX  13:13+2413:15+252m--1447.514499mWRUjjain, Madhya Pradesh
41/==/NADNagda Junction  14:15-914:25+210m11461.357468mWRNagda, Madhya Pradesh
42/==/MEPMahidpur RoadX  14:43+214:45+32m--1478.480493mWCRGogapur, Madhya Pradesh
43/==/LNRLuni RichhaX  14:53+514:55+52m--1489.061471mWCRAlote, Madhya Pradesh
44/==/VMAVikramgarh Alot  15:08+315:10+42m21502.251443mWCRKota Division, Madhya Pradesh
45/==/THURThuria  15:19+415:21+42m--1509.971432mWCRMDR 45, Madhya Pradesh
46/==/CMUChau MahlaX  15:33+615:35+92m21524.066426mWCRJhalawar, Rajasthan
47/==/SVASuwasraX  15:49+915:50+111m--1539.462450mWCRSuwasra, Madhya Pradesh
48/==/SGZShamgarhX  16:03+1216:08+105m--1552.859463mWCRMandsaur, Madhya Pradesh
49/==/GOHGarothX  16:19+1016:20+121m21563.772441mWCRMadhya Pradesh 458880, Madhya Pradesh
50/==/BWMBhawani MandiX  16:39+1116:41+132m--1586.358384mWCRBhawani Mandi, Madhya Pradesh
51/==/JHWJhalawar Road  16:58+1017:00+112m--1602.857361mWCRJhalawar City, Rajasthan
52/==/RMARamganj Mandi JunctionX  17:13+817:15+132m--1615.242355mWCRRamganj Mandi, Rajasthan
53/==/MKXMorak  17:28+917:30+112m--1624.268337mWCRMorak, Rajasthan
54/==/DARADaraX  17:43+1617:45+172m--1639.060354mWCRDara, Rajasthan
55/==/DKNTDakaniya TalavO  18:23+1218:25+162m11677.114278mWCRKota, Rajasthan
56/==/KOTAKota JunctionX  19:05-719:35+1430m11686.436256mWCRKota, Rajasthan
57|--|GQLGurla  19:44+1719:46+172m--1691.953251mWCRSH 33, Rajasthan
58/==/KPTNKeshorai PatanXO  19:55+1719:57+172m--1699.886243mWCRSH 33, Rajasthan
59/==/LKELakheriX  20:30+2520:32+262m--1746.951223mWCRBundi, Rajasthan
60/==/IDGIndargarh Sumerganj MandiXO  20:45+2720:47+282m--1757.953247mWCRIndargarh, Rajasthan
61/==/SWMSawai Madhopur Junction  21:28+1921:30+222m--1794.179266mWCRSawai Madhopur, Rajasthan
62/==/MLZMalarnaO  21:53+2421:55+252m--1824.345236mWCRSawai Madhopur, Rajasthan
63/==/GGCGangapur City  22:40+1622:45+185m21858.089270mWCRGangapur, Rajasthan
64/==/SMBJShri Mahabirji  23:08+2423:10+242m--1892.147240mWCRKarauli, Rajasthan
65/==/HANHindaun CityO  23:23+2323:25+242m--1902.344230mWCRKarauli, Rajasthan
66/==/BXNBayana JunctionXO  00:10+1600:15+175m--2935.257198mWCRBayana, Rajasthan
67/==/BTEBharatpur JunctionX  00:59+1101:00+331m--2977.225174mWCRBharatpur, Rajasthan
68/==/MTJMathura Junction  02:20+402:25+85m321010.775179mNCRMathura, Uttar Pradesh
69/==/KSVKosi Kalan  02:58+1103:00+122m121052.248189mNCRKosi Kalan, Uttar Pradesh